Terminal Aerodrome Forecast
Issued by NWS

Home | Current Version | Previous Version | Text Only | Print | Product List | Glossary On
Versions: 1 2 3 4 5 6 7 8 9 10 11 12 13
000
FTUS43 KSGF 221900 AAA
TAFBBG
TAF AMD
KBBG 221900Z 2219/2318 23010G15KT P6SM VCSH SCT080
     FM230100 17004KT P6SM SKC
     FM231400 24008KT P6SM SKC=

USA.gov is the U.S. government's official web portal to all federal, state and local government web resources and services.